createdAt,value
2023-05-17T00:02:40.736Z,99.90
2023-05-17T00:05:28.323Z,99.90
2023-05-17T00:08:15.903Z,99.90
2023-05-17T00:11:03.572Z,99.90
2023-05-17T00:13:51.107Z,99.90
2023-05-17T00:16:39.094Z,99.90
2023-05-17T00:19:26.781Z,99.90
2023-05-17T00:22:14.731Z,99.90
2023-05-17T00:25:01.956Z,99.90
2023-05-17T00:27:52.877Z,99.90
2023-05-17T00:30:40.493Z,99.90
2023-05-17T00:33:27.911Z,99.90
2023-05-17T00:36:15.710Z,99.90
2023-05-17T00:39:03.762Z,99.90
2023-05-17T00:41:51.408Z,99.90
2023-05-17T00:44:39.043Z,99.90
2023-05-17T00:47:26.423Z,99.90
2023-05-17T00:50:14.105Z,99.90
2023-05-17T00:53:01.808Z,99.90
2023-05-17T00:55:52.693Z,99.90
2023-05-17T00:58:40.882Z,99.90
2023-05-17T01:01:28.397Z,99.90
2023-05-17T01:04:16.014Z,99.90
2023-05-17T01:07:04.169Z,99.90
2023-05-17T01:09:51.675Z,99.90
2023-05-17T01:13:10.090Z,99.90
2023-05-17T01:16:21.467Z,99.90
2023-05-17T01:19:43.636Z,99.90
2023-05-17T01:23:01.551Z,99.90
2023-05-17T01:26:23.641Z,99.90
2023-05-17T01:29:13.004Z,99.90
2023-05-17T01:32:02.695Z,99.90
2023-05-17T01:34:50.382Z,99.90
2023-05-17T01:37:38.103Z,99.90
2023-05-17T01:40:31.919Z,99.90
2023-05-17T01:43:52.824Z,99.90
2023-05-17T01:46:44.582Z,99.90
2023-05-17T01:49:34.342Z,99.90
2023-05-17T01:52:53.853Z,99.90
2023-05-17T01:55:53.539Z,99.90
2023-05-17T01:58:50.019Z,99.90
2023-05-17T02:01:39.352Z,99.90
2023-05-17T02:04:26.687Z,99.90
2023-05-17T02:07:14.247Z,99.90
2023-05-17T02:10:01.709Z,99.90
2023-05-17T02:12:52.046Z,99.90
2023-05-17T02:15:39.566Z,99.90
2023-05-17T02:18:27.701Z,99.90
2023-05-17T02:21:15.567Z,99.90
2023-05-17T02:24:02.926Z,99.90
2023-05-17T02:26:50.579Z,99.90
2023-05-17T02:29:38.496Z,99.90
2023-05-17T02:32:26.269Z,99.90
2023-05-17T02:35:13.648Z,99.90
2023-05-17T02:38:01.530Z,99.90
2023-05-17T02:40:52.166Z,99.90
2023-05-17T02:43:40.358Z,99.90
2023-05-17T02:46:27.717Z,99.90
2023-05-17T02:49:15.070Z,99.90
2023-05-17T02:52:02.362Z,99.90
2023-05-17T02:54:50.170Z,99.90
2023-05-17T02:57:37.713Z,99.90
2023-05-17T03:00:25.171Z,99.90
2023-05-17T03:03:14.658Z,99.90
2023-05-17T03:06:04.707Z,99.90
2023-05-17T03:08:52.195Z,99.90
2023-05-17T03:11:39.557Z,99.90
2023-05-17T03:14:26.757Z,99.90
2023-05-17T03:17:14.034Z,99.90
2023-05-17T03:20:01.349Z,99.90
2023-05-17T03:22:50.662Z,99.90
2023-05-17T03:25:38.225Z,99.90
2023-05-17T03:28:26.106Z,99.90
2023-05-17T03:31:13.904Z,99.90
2023-05-17T03:34:01.526Z,99.90
2023-05-17T03:36:49.028Z,99.90
2023-05-17T03:39:36.427Z,99.90
2023-05-17T03:42:23.796Z,99.90
2023-05-17T03:45:12.967Z,99.90
2023-05-17T03:48:00.667Z,99.90
2023-05-17T03:50:48.068Z,99.90
2023-05-17T03:53:37.797Z,99.90
2023-05-17T03:56:25.066Z,99.90
2023-05-17T03:59:12.678Z,99.90
2023-05-17T04:02:00.155Z,99.90
2023-05-17T04:04:52.921Z,99.90
2023-05-17T04:07:40.702Z,99.90
2023-05-17T04:10:28.074Z,99.90
2023-05-17T04:13:15.778Z,99.90
2023-05-17T04:16:03.192Z,99.90
2023-05-17T04:18:52.499Z,99.90
2023-05-17T04:21:39.953Z,99.90
2023-05-17T04:24:27.619Z,99.90
2023-05-17T04:27:15.240Z,99.90
2023-05-17T04:30:02.639Z,99.90
2023-05-17T04:32:50.848Z,99.90
2023-05-17T04:35:41.804Z,99.90
2023-05-17T04:38:30.038Z,99.90
2023-05-17T04:41:18.977Z,99.90
2023-05-17T04:44:08.214Z,99.90
2023-05-17T04:46:55.879Z,99.90
2023-05-17T04:49:43.882Z,99.90
2023-05-17T04:52:32.805Z,99.90
2023-05-17T04:55:20.373Z,99.90
2023-05-17T04:58:07.886Z,99.90
2023-05-17T05:00:55.356Z,99.90
2023-05-17T05:03:42.847Z,99.90
2023-05-17T05:06:30.806Z,99.90
2023-05-17T05:09:18.861Z,99.90
2023-05-17T05:12:07.172Z,99.90
2023-05-17T05:14:54.819Z,99.90
2023-05-17T05:17:42.460Z,99.90
2023-05-17T05:20:29.969Z,99.90
2023-05-17T05:23:18.727Z,99.90
2023-05-17T05:26:06.174Z,99.90
2023-05-17T05:28:53.516Z,99.90
2023-05-17T05:31:40.978Z,99.90
2023-05-17T05:34:29.458Z,99.90
2023-05-17T05:37:19.769Z,99.90
2023-05-17T05:40:08.889Z,99.90
2023-05-17T05:42:56.340Z,99.90
2023-05-17T05:45:45.877Z,99.90
2023-05-17T05:48:33.494Z,99.90
2023-05-17T05:51:22.741Z,99.90
2023-05-17T05:54:10.216Z,99.90
2023-05-17T05:56:57.590Z,99.90
2023-05-17T05:59:45.383Z,99.90
2023-05-17T06:02:33.215Z,99.90
2023-05-17T06:05:20.972Z,99.90
2023-05-17T06:08:09.483Z,99.90
2023-05-17T06:10:57.239Z,99.90
2023-05-17T06:13:44.628Z,99.90
2023-05-17T06:16:31.958Z,99.90
2023-05-17T06:19:21.055Z,99.90
2023-05-17T06:22:10.414Z,99.90
2023-05-17T06:24:57.922Z,99.90
2023-05-17T06:27:45.475Z,99.90
2023-05-17T06:30:33.232Z,99.90
2023-05-17T06:33:20.933Z,99.90
2023-05-17T06:36:08.628Z,99.90
2023-05-17T06:38:56.769Z,99.90
2023-05-17T06:41:44.362Z,99.90
2023-05-17T06:44:33.914Z,99.90
2023-05-17T06:47:21.325Z,99.90
2023-05-17T06:50:09.525Z,99.90
2023-05-17T06:52:57.182Z,99.90
2023-05-17T06:55:47.233Z,99.90
2023-05-17T06:58:35.560Z,99.90
2023-05-17T07:01:23.045Z,99.90
2023-05-17T07:04:10.614Z,99.90
2023-05-17T07:06:57.854Z,99.90
2023-05-17T07:09:45.458Z,99.90
2023-05-17T07:12:34.637Z,99.90
2023-05-17T07:15:23.196Z,99.90
2023-05-17T07:18:10.767Z,99.90
2023-05-17T07:20:58.965Z,99.90
2023-05-17T07:23:46.589Z,99.90
2023-05-17T07:26:33.737Z,99.90
2023-05-17T07:29:21.116Z,99.90
2023-05-17T07:32:09.519Z,99.90
2023-05-17T07:34:57.103Z,99.90
2023-05-17T07:37:44.371Z,99.90
2023-05-17T07:40:31.991Z,99.90
2023-05-17T07:43:19.569Z,99.90
2023-05-17T07:46:07.114Z,99.90
2023-05-17T07:48:57.345Z,99.90
2023-05-17T07:51:43.959Z,99.90
2023-05-17T07:54:32.351Z,99.80
2023-05-17T07:57:19.639Z,99.90
2023-05-17T08:00:10.546Z,99.90
2023-05-17T08:02:58.590Z,99.40
2023-05-17T08:05:48.126Z,98.70
2023-05-17T08:08:34.759Z,99.20
2023-05-17T08:11:22.651Z,99.00
2023-05-17T08:14:09.950Z,98.80
2023-05-17T08:16:57.636Z,99.00
2023-05-17T08:19:45.514Z,99.90
2023-05-17T08:22:33.133Z,99.40
2023-05-17T08:25:21.377Z,99.60
2023-05-17T08:28:08.973Z,99.30
2023-05-17T08:30:56.358Z,99.40
2023-05-17T08:33:44.371Z,99.50
2023-05-17T08:36:31.964Z,99.90
2023-05-17T08:39:21.016Z,99.40
2023-05-17T08:42:11.664Z,99.80
2023-05-17T08:44:59.700Z,99.70
2023-05-17T08:47:49.300Z,99.80
2023-05-17T08:50:38.160Z,99.70
2023-05-17T08:53:27.122Z,97.30
2023-05-17T08:56:18.410Z,96.50
2023-05-17T08:59:07.123Z,97.00
2023-05-17T09:01:55.480Z,96.30
2023-05-17T09:04:43.535Z,96.40
2023-05-17T09:07:32.076Z,96.70
2023-05-17T09:10:20.313Z,97.10
2023-05-17T09:13:08.139Z,96.00
2023-05-17T09:15:55.833Z,95.80
2023-05-17T09:18:43.347Z,95.40
2023-05-17T09:21:31.523Z,95.80
2023-05-17T09:24:23.412Z,94.50
2023-05-17T09:27:12.327Z,95.00
2023-05-17T09:29:59.874Z,94.10
2023-05-17T09:32:50.871Z,94.10
2023-05-17T09:35:39.537Z,94.90
2023-05-17T09:38:27.820Z,93.30
2023-05-17T09:41:15.821Z,93.10
2023-05-17T09:44:04.282Z,92.10
2023-05-17T09:46:52.837Z,92.50
2023-05-17T09:49:40.663Z,92.40
2023-05-17T09:52:30.568Z,91.90
2023-05-17T09:55:24.196Z,92.40
2023-05-17T09:58:11.668Z,92.30
2023-05-17T10:01:03.764Z,91.80
2023-05-17T10:03:51.905Z,90.90
2023-05-17T10:09:34.222Z,92.00
2023-05-17T10:12:25.587Z,91.20
2023-05-17T10:15:15.851Z,90.20
2023-05-17T10:18:05.168Z,88.60
2023-05-17T10:20:52.936Z,86.90
2023-05-17T10:23:43.188Z,88.50
2023-05-17T10:26:31.583Z,90.80
2023-05-17T10:29:21.210Z,92.30
2023-05-17T10:32:10.481Z,92.40
2023-05-17T10:35:10.370Z,92.70
2023-05-17T10:37:49.294Z,91.60
2023-05-17T10:40:37.508Z,88.00
2023-05-17T10:43:26.823Z,86.10
2023-05-17T10:46:24.104Z,87.60
2023-05-17T10:49:12.564Z,87.70
2023-05-17T10:52:02.401Z,82.70
2023-05-17T10:54:50.924Z,81.00
2023-05-17T10:57:50.532Z,83.60
2023-05-17T11:00:31.738Z,82.30
2023-05-17T11:03:24.977Z,84.90
2023-05-17T11:06:23.509Z,83.60
2023-05-17T11:09:09.226Z,82.20
2023-05-17T11:12:10.738Z,81.90
2023-05-17T11:14:58.901Z,81.00
2023-05-17T11:17:56.223Z,80.00
2023-05-17T11:20:45.637Z,79.10
2023-05-17T11:23:35.382Z,77.70
2023-05-17T11:26:26.159Z,76.30
2023-05-17T11:29:14.694Z,77.60
2023-05-17T11:32:06.089Z,84.20
2023-05-17T11:34:54.074Z,83.10
2023-05-17T11:37:44.954Z,79.50
2023-05-17T11:40:33.687Z,72.50
2023-05-17T11:43:27.317Z,63.30
2023-05-17T11:46:23.771Z,63.60
2023-05-17T11:49:15.577Z,63.50
2023-05-17T11:52:01.195Z,66.30
2023-05-17T11:54:49.952Z,67.10
2023-05-17T11:57:40.539Z,69.10
2023-05-17T12:00:28.908Z,68.30
2023-05-17T12:03:28.815Z,67.40
2023-05-17T12:06:18.178Z,68.20
2023-05-17T12:09:07.841Z,67.30
2023-05-17T12:11:56.391Z,64.60
2023-05-17T12:14:48.268Z,61.60
2023-05-17T12:17:39.272Z,67.50
2023-05-17T12:20:26.685Z,64.20
2023-05-17T12:23:14.389Z,59.90
2023-05-17T12:26:06.900Z,61.40
2023-05-17T12:28:59.836Z,59.70
2023-05-17T12:31:52.855Z,66.20
2023-05-17T12:34:41.761Z,61.30
2023-05-17T12:37:29.267Z,64.90
2023-05-17T12:40:17.813Z,64.10
2023-05-17T12:43:05.967Z,69.20
2023-05-17T12:45:54.793Z,61.00
2023-05-17T12:48:44.002Z,62.40
2023-05-17T12:51:34.755Z,59.00
2023-05-17T12:54:27.715Z,60.00
2023-05-17T12:57:16.076Z,59.40
2023-05-17T13:00:08.246Z,67.60
2023-05-17T13:02:55.785Z,59.90
2023-05-17T13:05:44.164Z,59.00
2023-05-17T13:08:33.102Z,60.40
2023-05-17T13:11:22.252Z,62.60
2023-05-17T13:14:12.677Z,58.50
2023-05-17T13:17:00.137Z,57.40
2023-05-17T13:19:50.528Z,65.70
2023-05-17T13:22:44.024Z,58.60
2023-05-17T13:25:31.656Z,59.20
2023-05-17T13:28:22.106Z,59.50
2023-05-17T13:31:09.619Z,63.10
2023-05-17T13:33:57.418Z,59.30
2023-05-17T13:36:45.396Z,58.80
2023-05-17T13:39:33.388Z,59.70
2023-05-17T13:42:21.001Z,57.90
2023-05-17T13:45:09.281Z,60.50
2023-05-17T13:47:57.236Z,67.60
2023-05-17T13:50:44.540Z,59.50
2023-05-17T13:53:34.251Z,61.10
2023-05-17T13:56:22.421Z,63.20
2023-05-17T13:59:10.387Z,67.90
2023-05-17T14:01:58.087Z,64.00
2023-05-17T14:04:45.415Z,64.50
2023-05-17T14:07:33.010Z,62.80
2023-05-17T14:10:20.619Z,59.20
2023-05-17T14:13:08.401Z,57.30
2023-05-17T14:15:56.097Z,58.00
2023-05-17T14:18:43.689Z,58.80
2023-05-17T14:21:31.934Z,58.60
2023-05-17T14:24:19.624Z,58.70
2023-05-17T14:27:07.671Z,59.00
2023-05-17T14:29:55.372Z,59.80
2023-05-17T14:32:43.083Z,58.20
2023-05-17T14:35:32.034Z,61.60
2023-05-17T14:38:23.127Z,60.10
2023-05-17T14:41:10.829Z,61.80
2023-05-17T14:43:58.298Z,59.70
2023-05-17T14:46:48.189Z,59.80
2023-05-17T14:49:35.577Z,58.70
2023-05-17T14:52:23.670Z,59.40
2023-05-17T14:55:12.179Z,58.30
2023-05-17T14:58:01.732Z,59.10
2023-05-17T15:00:54.115Z,58.80
2023-05-17T15:03:41.257Z,57.90
2023-05-17T15:06:28.921Z,61.10
2023-05-17T15:09:18.776Z,55.60
2023-05-17T15:12:06.814Z,56.70
2023-05-17T15:14:54.295Z,56.60
2023-05-17T15:17:42.684Z,59.30
2023-05-17T15:20:30.305Z,60.20
2023-05-17T15:23:17.631Z,55.80
2023-05-17T15:26:04.914Z,56.40
2023-05-17T15:28:52.465Z,55.40
2023-05-17T15:31:40.020Z,55.40
2023-05-17T15:34:29.067Z,55.50
2023-05-17T15:37:16.625Z,55.70
2023-05-17T15:40:11.200Z,55.50
2023-05-17T15:42:58.788Z,55.10
2023-05-17T15:45:46.409Z,57.40
2023-05-17T15:48:34.337Z,58.00
2023-05-17T15:51:22.738Z,56.40
2023-05-17T15:54:09.933Z,55.70
2023-05-17T15:56:57.829Z,55.40
2023-05-17T15:59:45.414Z,56.00
2023-05-17T16:02:32.811Z,56.90
2023-05-17T16:05:20.324Z,53.10
2023-05-17T16:08:08.760Z,54.00
2023-05-17T16:10:56.562Z,54.10
2023-05-17T16:13:44.186Z,54.00
2023-05-17T16:16:31.547Z,54.10
2023-05-17T16:19:20.661Z,53.10
2023-05-17T16:22:09.450Z,55.30
2023-05-17T16:24:57.205Z,55.20
2023-05-17T16:27:45.222Z,51.90
2023-05-17T16:30:32.659Z,53.00
2023-05-17T16:33:20.664Z,52.70
2023-05-17T16:36:08.831Z,50.90
2023-05-17T16:38:56.177Z,50.50
2023-05-17T16:41:43.571Z,51.30
2023-05-17T16:44:31.417Z,52.30
2023-05-17T16:47:26.253Z,51.30
2023-05-17T16:50:14.137Z,51.10
2023-05-17T16:53:01.399Z,52.30
2023-05-17T16:55:52.024Z,53.30
2023-05-17T16:58:39.615Z,52.90
2023-05-17T17:01:27.722Z,53.30
2023-05-17T17:04:15.361Z,54.40
2023-05-17T17:07:04.056Z,53.80
2023-05-17T17:09:51.209Z,54.50
2023-05-17T17:12:38.743Z,54.50
2023-05-17T17:15:26.323Z,55.10
2023-05-17T17:18:13.453Z,55.40
2023-05-17T17:21:01.264Z,56.10
2023-05-17T17:23:48.726Z,56.60
2023-05-17T17:26:36.418Z,56.80
2023-05-17T17:29:23.954Z,56.80
2023-05-17T17:32:11.549Z,55.90
2023-05-17T17:34:58.973Z,55.80
2023-05-17T17:37:49.014Z,55.30
2023-05-17T17:40:36.364Z,55.00
2023-05-17T17:43:23.786Z,54.40
2023-05-17T17:46:11.629Z,53.70
2023-05-17T17:48:58.846Z,53.90
2023-05-17T17:51:48.710Z,54.60
2023-05-17T17:54:38.513Z,54.10
2023-05-17T17:57:26.513Z,54.30
2023-05-17T18:00:16.047Z,54.50
2023-05-17T18:03:03.561Z,54.40
2023-05-17T18:05:51.061Z,55.10
2023-05-17T18:08:38.828Z,55.70
2023-05-17T18:11:26.393Z,56.50
2023-05-17T18:14:15.250Z,57.30
2023-05-17T18:17:02.707Z,58.50
2023-05-17T18:19:50.019Z,58.90
2023-05-17T18:22:37.281Z,59.60
2023-05-17T18:25:25.049Z,60.30
2023-05-17T18:28:12.435Z,61.40
2023-05-17T18:31:00.212Z,62.30
2023-05-17T18:33:49.086Z,62.90
2023-05-17T18:36:36.383Z,64.60
2023-05-17T18:39:24.133Z,65.70
2023-05-17T18:42:11.884Z,66.50
2023-05-17T18:45:00.931Z,67.30
2023-05-17T18:47:48.379Z,68.20
2023-05-17T18:50:36.038Z,69.20
2023-05-17T18:53:23.802Z,71.10
2023-05-17T18:56:12.543Z,71.40
2023-05-17T18:59:01.081Z,71.80
2023-05-17T19:01:48.498Z,71.90
2023-05-17T19:04:36.716Z,72.70
2023-05-17T19:07:24.262Z,73.00
2023-05-17T19:10:11.890Z,73.60
2023-05-17T19:12:59.371Z,74.40
2023-05-17T19:15:49.948Z,75.00
2023-05-17T19:18:37.667Z,75.50
2023-05-17T19:21:25.139Z,76.00
2023-05-17T19:24:12.421Z,76.70
2023-05-17T19:27:00.106Z,77.40
2023-05-17T19:29:49.751Z,77.70
2023-05-17T19:32:37.928Z,77.90
2023-05-17T19:35:25.431Z,78.60
2023-05-17T19:38:13.004Z,79.40
2023-05-17T19:41:04.434Z,80.00
2023-05-17T19:43:52.019Z,80.70
2023-05-17T19:46:39.517Z,81.00
2023-05-17T19:49:26.535Z,81.90
2023-05-17T19:52:13.906Z,82.30
2023-05-17T19:55:01.276Z,82.90
2023-05-17T19:57:50.383Z,83.30
2023-05-17T20:00:38.466Z,83.60
2023-05-17T20:03:27.139Z,84.40
2023-05-17T20:06:15.008Z,84.40
2023-05-17T20:09:04.166Z,84.80
2023-05-17T20:11:51.774Z,85.00
2023-05-17T20:14:39.568Z,85.20
2023-05-17T20:17:27.168Z,85.60
2023-05-17T20:20:14.781Z,86.40
2023-05-17T20:23:02.147Z,87.00
2023-05-17T20:25:52.526Z,88.50
2023-05-17T20:28:39.929Z,88.70
2023-05-17T20:31:28.107Z,90.10
2023-05-17T20:34:15.493Z,90.30
2023-05-17T20:37:03.286Z,90.80
2023-05-17T20:39:51.319Z,91.40
2023-05-17T20:42:40.295Z,92.10
2023-05-17T20:45:29.785Z,93.30
2023-05-17T20:48:18.909Z,94.50
2023-05-17T20:51:06.699Z,94.90
2023-05-17T20:53:54.815Z,95.80
2023-05-17T20:56:42.136Z,95.90
2023-05-17T20:59:30.502Z,96.20
2023-05-17T21:02:17.981Z,96.70
2023-05-17T21:05:05.570Z,97.10
2023-05-17T21:07:53.195Z,97.40
2023-05-17T21:10:43.155Z,97.90
2023-05-17T21:13:30.983Z,98.40
2023-05-17T21:16:19.181Z,98.60
2023-05-17T21:19:09.810Z,98.50
2023-05-17T21:21:57.238Z,98.80
2023-05-17T21:24:44.903Z,98.40
2023-05-17T21:27:33.777Z,98.30
2023-05-17T21:30:21.292Z,98.30
2023-05-17T21:33:08.942Z,98.30
2023-05-17T21:35:56.530Z,98.40
2023-05-17T21:38:44.558Z,98.10
2023-05-17T21:41:32.058Z,98.30
2023-05-17T21:44:19.420Z,98.20
2023-05-17T21:47:07.262Z,98.00
2023-05-17T21:49:54.942Z,98.20
2023-05-17T21:52:42.293Z,98.30
2023-05-17T21:55:36.410Z,98.40
2023-05-17T21:58:21.253Z,98.50
2023-05-17T22:01:08.791Z,98.50
2023-05-17T22:03:56.327Z,98.40
2023-05-17T22:06:44.538Z,98.30
2023-05-17T22:09:32.915Z,98.40
2023-05-17T22:12:22.759Z,98.50
2023-05-17T22:15:10.819Z,98.80
2023-05-17T22:17:58.505Z,99.10
2023-05-17T22:20:48.153Z,99.10
2023-05-17T22:23:35.588Z,99.10
2023-05-17T22:26:23.549Z,99.30
2023-05-17T22:29:11.341Z,99.40
2023-05-17T22:31:59.019Z,99.60
2023-05-17T22:34:46.734Z,99.70
2023-05-17T22:37:34.334Z,99.80
2023-05-17T22:40:21.743Z,99.80
2023-05-17T22:43:10.765Z,99.90
2023-05-17T22:45:59.884Z,99.90
2023-05-17T22:48:48.965Z,99.90
2023-05-17T22:51:36.845Z,99.90
2023-05-17T22:54:24.198Z,99.90
2023-05-17T22:57:11.658Z,99.90
2023-05-17T22:59:58.989Z,99.90
2023-05-17T23:02:48.290Z,99.90
2023-05-17T23:05:36.910Z,99.90
2023-05-17T23:08:24.300Z,99.90
2023-05-17T23:11:12.038Z,99.90
2023-05-17T23:14:00.681Z,99.90
2023-05-17T23:16:51.150Z,99.90
2023-05-17T23:19:40.209Z,99.90
2023-05-17T23:22:29.259Z,99.90
2023-05-17T23:25:16.724Z,99.90
2023-05-17T23:28:04.525Z,99.90
2023-05-17T23:30:54.394Z,99.90
2023-05-17T23:33:42.616Z,99.90
2023-05-17T23:36:30.143Z,99.90
2023-05-17T23:39:19.136Z,99.90
2023-05-17T23:42:06.455Z,99.90
2023-05-17T23:44:54.298Z,99.90
2023-05-17T23:47:41.864Z,99.90
2023-05-17T23:50:29.440Z,99.90
2023-05-17T23:53:18.584Z,99.90
2023-05-17T23:56:06.404Z,99.90
2023-05-17T23:58:53.855Z,99.90
